Time;durP1;ratioP1;P1;durP2;ratioP2;P2;SDS_P1;SDS_P2;PMS_P1;PMS_P2;Temp;Humidity;BMP_temperature;BMP_pressure;BME280_temperature;BME280_humidity;BME280_pressure;Samples;Min_cycle;Max_cycle;Signal;HPM_P1;HPM_P2
2022/06/25 00:00:30;;;;;;;21.30;14.60;;;16.50;99.90;;;;;;5053756;28;20450;-74
2022/06/25 00:02:57;;;;;;;19.63;14.47;;;16.50;99.90;;;;;;5053629;28;20453;-74
2022/06/25 00:05:32;;;;;;;20.20;14.40;;;16.40;99.90;;;;;;5053404;28;20506;-74
2022/06/25 00:07:59;;;;;;;21.03;14.80;;;16.40;99.90;;;;;;5053384;28;20456;-74
2022/06/25 00:10:26;;;;;;;23.10;14.60;;;16.40;99.90;;;;;;5052922;28;20475;-74
2022/06/25 00:12:52;;;;;;;25.50;14.20;;;16.40;99.90;;;;;;5052066;28;20454;-74
2022/06/25 00:15:19;;;;;;;22.07;14.27;;;16.40;99.90;;;;;;5052665;28;20498;-74
2022/06/25 00:17:47;;;;;;;25.63;14.20;;;16.40;99.90;;;;;;5053359;28;20604;-74
2022/06/25 00:20:14;;;;;;;19.93;15.47;;;16.40;99.90;;;;;;5050998;28;20785;-74
2022/06/25 00:22:40;;;;;;;23.07;14.47;;;16.40;99.90;;;;;;5052961;28;20415;-74
2022/06/25 00:25:07;;;;;;;19.87;13.90;;;16.40;99.90;;;;;;5052283;28;20454;-74
2022/06/25 00:27:34;;;;;;;15.00;13.40;;;16.40;99.90;;;;;;5052705;28;20481;-74
2022/06/25 00:30:01;;;;;;;20.83;15.37;;;16.50;99.90;;;;;;5052219;28;20419;-74
2022/06/25 00:32:27;;;;;;;21.67;14.73;;;16.50;99.90;;;;;;5052224;28;20504;-74
2022/06/25 00:34:55;;;;;;;27.17;14.63;;;16.50;99.90;;;;;;5052501;28;20431;-74
2022/06/25 00:37:22;;;;;;;22.17;13.83;;;16.50;99.90;;;;;;5051947;28;20534;-74
2022/06/25 00:39:50;;;;;;;19.23;13.83;;;16.50;99.90;;;;;;5052298;28;20435;-74
2022/06/25 00:42:17;;;;;;;25.80;13.30;;;16.50;99.90;;;;;;5052245;28;20443;-74
2022/06/25 00:44:44;;;;;;;19.50;13.60;;;16.50;99.90;;;;;;5052348;28;20427;-74
2022/06/25 00:47:12;;;;;;;19.43;12.63;;;16.50;99.90;;;;;;5052126;28;20430;-74
2022/06/25 00:49:39;;;;;;;20.17;13.00;;;16.40;99.90;;;;;;5051987;28;20457;-74
2022/06/25 00:52:11;;;;;;;14.30;12.80;;;16.50;99.90;;;;;;5052279;28;20906;-74
2022/06/25 00:54:43;;;;;;;19.47;13.50;;;16.40;99.90;;;;;;5052357;28;20512;-74
2022/06/25 00:57:11;;;;;;;17.40;12.47;;;16.40;99.90;;;;;;5052366;28;20419;-74
2022/06/25 00:59:44;;;;;;;24.77;12.90;;;16.40;99.90;;;;;;5052413;28;20423;-74
2022/06/25 01:02:11;;;;;;;19.63;12.43;;;16.30;99.90;;;;;;5051801;28;20472;-74
2022/06/25 01:04:38;;;;;;;21.80;13.17;;;16.20;99.90;;;;;;5051342;28;20919;-74
2022/06/25 01:07:07;;;;;;;17.30;13.03;;;16.30;99.90;;;;;;5051893;28;20503;-74
2022/06/25 01:09:33;;;;;;;21.10;13.10;;;16.30;99.90;;;;;;5051829;28;20423;-74
2022/06/25 01:12:00;;;;;;;13.80;12.40;;;16.30;99.90;;;;;;5051712;28;20873;-74
2022/06/25 01:14:27;;;;;;;19.83;12.20;;;16.30;99.90;;;;;;5051590;28;20483;-74
2022/06/25 01:16:54;;;;;;;16.33;11.90;;;16.20;99.90;;;;;;5051074;28;20419;-74
2022/06/25 01:19:20;;;;;;;14.40;11.10;;;16.20;99.90;;;;;;5051542;28;20479;-74
2022/06/25 01:21:47;;;;;;;17.23;11.40;;;16.10;99.90;;;;;;5051256;28;20454;-74
2022/06/25 01:24:15;;;;;;;17.70;11.10;;;16.10;99.90;;;;;;5051771;28;20445;-74
2022/06/25 01:26:42;;;;;;;17.00;11.67;;;16.10;99.90;;;;;;5048380;28;20449;-74
2022/06/25 01:29:10;;;;;;;20.87;10.93;;;16.00;99.90;;;;;;5051578;28;20504;-74
2022/06/25 01:31:37;;;;;;;14.80;10.23;;;15.90;99.90;;;;;;5051122;28;20451;-74
2022/06/25 01:34:05;;;;;;;17.83;9.50;;;15.90;99.90;;;;;;5050736;28;20459;-74
2022/06/25 01:36:32;;;;;;;22.97;10.60;;;15.80;99.90;;;;;;5051255;28;20476;-74
2022/06/25 01:38:58;;;;;;;16.10;10.47;;;15.80;99.90;;;;;;5051400;28;20502;-74
2022/06/25 01:41:26;;;;;;;17.10;10.57;;;15.80;99.90;;;;;;5050851;28;20468;-74
2022/06/25 01:43:53;;;;;;;13.87;10.20;;;15.80;99.90;;;;;;5049651;28;20897;-74
2022/06/25 01:46:19;;;;;;;19.77;8.90;;;15.70;99.90;;;;;;5050870;28;20448;-74
2022/06/25 01:48:46;;;;;;;18.73;9.00;;;15.70;99.90;;;;;;5051166;28;20529;-74
2022/06/25 01:51:13;;;;;;;14.30;9.03;;;15.70;99.90;;;;;;5051755;28;20479;-74
2022/06/25 01:53:40;;;;;;;32.40;9.43;;;15.70;99.90;;;;;;5051026;28;20932;-74
2022/06/25 01:56:07;;;;;;;24.73;8.90;;;15.70;99.90;;;;;;5051232;28;21025;-74
2022/06/25 01:58:35;;;;;;;18.17;9.00;;;15.60;99.90;;;;;;5051038;28;20453;-74
2022/06/25 02:01:02;;;;;;;16.00;8.43;;;15.50;99.90;;;;;;5051102;28;20446;-74
2022/06/25 02:03:29;;;;;;;23.13;8.53;;;15.50;99.90;;;;;;5050847;28;20940;-74
2022/06/25 02:05:58;;;;;;;18.50;8.70;;;15.50;99.90;;;;;;5050606;28;20464;-74
2022/06/25 02:08:26;;;;;;;18.53;9.10;;;15.50;99.90;;;;;;5048822;28;20444;-74
2022/06/25 02:10:53;;;;;;;19.50;8.73;;;15.50;99.90;;;;;;5050814;28;20474;-74
2022/06/25 02:13:20;;;;;;;16.13;8.17;;;15.50;99.90;;;;;;5050054;28;21040;-74
2022/06/25 02:15:48;;;;;;;20.77;8.57;;;15.50;99.90;;;;;;5050794;28;20502;-74
2022/06/25 02:18:15;;;;;;;16.93;8.60;;;15.50;99.90;;;;;;5050535;28;20445;-74
2022/06/25 02:20:42;;;;;;;22.43;8.97;;;15.40;99.90;;;;;;5050637;28;20464;-74
2022/06/25 02:23:10;;;;;;;12.17;8.80;;;15.50;99.90;;;;;;5050390;28;20440;-74
2022/06/25 02:25:36;;;;;;;21.30;9.20;;;15.40;99.90;;;;;;5050273;28;20514;-74
2022/06/25 02:28:03;;;;;;;16.70;8.50;;;15.40;99.90;;;;;;5049730;28;20452;-74
2022/06/25 02:30:30;;;;;;;14.73;8.20;;;15.40;99.90;;;;;;5048750;28;20913;-74
2022/06/25 02:32:58;;;;;;;21.07;7.83;;;15.40;99.90;;;;;;5050504;28;20816;-74
2022/06/25 02:35:25;;;;;;;11.60;8.23;;;15.40;99.90;;;;;;5049879;28;20917;-74
2022/06/25 02:37:52;;;;;;;19.47;7.67;;;15.40;99.90;;;;;;5050493;28;20452;-74
2022/06/25 02:40:19;;;;;;;13.37;9.20;;;15.40;99.90;;;;;;5049673;28;20450;-74
2022/06/25 02:42:46;;;;;;;11.87;8.97;;;15.40;99.90;;;;;;5049943;28;20448;-74
2022/06/25 02:45:13;;;;;;;12.07;8.80;;;15.30;99.90;;;;;;5048108;28;20517;-74
2022/06/25 02:47:40;;;;;;;19.40;9.27;;;15.40;99.90;;;;;;5050210;28;20482;-74
2022/06/25 02:50:08;;;;;;;13.53;8.50;;;15.40;99.90;;;;;;5049950;28;20459;-74
2022/06/25 02:52:35;;;;;;;10.50;8.60;;;15.30;99.90;;;;;;5050040;28;20449;-74
2022/06/25 02:55:02;;;;;;;21.70;9.10;;;15.30;99.90;;;;;;5049738;28;20457;-74
2022/06/25 03:00:14;;;;;;;13.77;8.73;;;15.30;99.90;;;;;;5049756;28;20439;-74
2022/06/25 03:02:41;;;;;;;16.10;8.03;;;15.30;99.90;;;;;;5050183;28;20459;-74
2022/06/25 03:05:09;;;;;;;11.63;10.30;;;15.30;99.90;;;;;;5050031;28;20448;-74
2022/06/25 03:07:36;;;;;;;14.90;8.93;;;15.20;99.90;;;;;;5049564;28;20456;-74
2022/06/25 03:10:03;;;;;;;22.20;10.20;;;15.20;99.90;;;;;;5050191;28;20457;-74
2022/06/25 03:12:31;;;;;;;15.60;11.90;;;15.20;99.90;;;;;;5050025;28;20495;-74
2022/06/25 03:14:57;;;;;;;36.30;14.57;;;15.20;99.90;;;;;;5050064;28;20484;-74
2022/06/25 03:17:24;;;;;;;20.27;13.57;;;15.20;99.90;;;;;;5049615;28;20877;-74
2022/06/25 03:19:51;;;;;;;27.17;14.80;;;15.30;99.90;;;;;;5049850;28;20457;-74
2022/06/25 03:22:18;;;;;;;20.70;14.83;;;15.30;99.90;;;;;;5049218;28;20472;-74
2022/06/25 03:24:45;;;;;;;22.37;14.30;;;15.30;99.90;;;;;;5049777;28;20469;-74
2022/06/25 03:27:12;;;;;;;29.80;16.77;;;15.40;99.90;;;;;;5049523;28;20502;-74
2022/06/25 03:29:38;;;;;;;35.27;15.60;;;15.40;99.90;;;;;;5050050;28;20453;-74
2022/06/25 03:32:06;;;;;;;37.80;16.50;;;15.50;99.90;;;;;;5052185;28;20442;-74
2022/06/25 03:34:33;;;;;;;38.13;18.40;;;15.50;99.90;;;;;;5053149;28;20477;-74
2022/06/25 03:36:59;;;;;;;38.33;17.97;;;15.60;99.90;;;;;;5053515;28;20870;-74
2022/06/25 03:39:27;;;;;;;33.73;16.50;;;15.60;99.90;;;;;;5053387;28;20465;-74
2022/06/25 03:41:54;;;;;;;30.50;17.17;;;15.70;99.90;;;;;;5053921;28;20525;-74
2022/06/25 03:44:20;;;;;;;30.57;16.60;;;15.70;99.90;;;;;;5053348;28;20503;-74
2022/06/25 03:46:47;;;;;;;32.53;16.00;;;15.80;99.90;;;;;;5053725;28;20514;-74
2022/06/25 03:49:14;;;;;;;49.07;18.17;;;15.80;99.90;;;;;;5053003;28;21302;-74
2022/06/25 03:51:40;;;;;;;42.20;17.77;;;15.80;99.90;;;;;;5053126;28;20472;-74
2022/06/25 03:54:07;;;;;;;36.50;18.20;;;15.80;99.90;;;;;;5052977;28;20534;-74
2022/06/25 03:56:35;;;;;;;43.90;17.97;;;15.80;99.90;;;;;;5053330;28;20456;-74
2022/06/25 03:59:02;;;;;;;42.73;18.40;;;15.80;99.90;;;;;;5052103;28;20964;-74
2022/06/25 04:01:28;;;;;;;38.00;17.63;;;15.80;99.90;;;;;;5053036;28;20442;-74
2022/06/25 04:03:55;;;;;;;33.53;19.43;;;15.90;99.90;;;;;;5052688;28;20582;-74
2022/06/25 04:06:22;;;;;;;41.50;19.73;;;15.90;99.90;;;;;;5053080;28;20872;-74
2022/06/25 04:08:48;;;;;;;34.53;18.47;;;15.90;99.90;;;;;;5052675;28;20584;-74
2022/06/25 04:11:15;;;;;;;44.37;18.40;;;15.80;99.90;;;;;;5052746;28;20476;-74
2022/06/25 04:13:43;;;;;;;33.40;17.80;;;15.80;99.90;;;;;;5050323;28;20481;-74
2022/06/25 04:16:10;;;;;;;42.40;20.50;;;15.80;99.90;;;;;;5052952;28;20854;-74
2022/06/25 04:18:36;;;;;;;32.70;18.50;;;15.80;99.90;;;;;;5052743;28;20506;-74
2022/06/25 04:21:03;;;;;;;51.20;20.40;;;15.80;99.90;;;;;;5051668;28;20530;-74
2022/06/25 04:23:30;;;;;;;31.60;20.23;;;15.80;99.90;;;;;;5052694;28;20440;-74
2022/06/25 04:25:56;;;;;;;38.30;20.43;;;15.80;99.90;;;;;;5052685;28;20458;-74
2022/06/25 04:31:08;;;;;;;43.73;22.27;;;15.70;99.90;;;;;;5051838;28;20494;-74
2022/06/25 04:33:35;;;;;;;35.20;21.03;;;15.70;99.90;;;;;;5051441;28;20458;-73
2022/06/25 04:36:02;;;;;;;35.53;19.30;;;15.70;99.90;;;;;;5051107;28;20874;-74
2022/06/25 04:38:29;;;;;;;34.13;20.20;;;15.70;99.90;;;;;;5052430;28;20952;-73
2022/06/25 04:40:55;;;;;;;35.90;20.47;;;15.80;99.90;;;;;;5052083;28;20832;-74
2022/06/25 04:43:23;;;;;;;31.70;21.20;;;15.80;99.90;;;;;;5051444;28;20507;-74
2022/06/25 04:45:50;;;;;;;34.13;21.07;;;15.80;99.90;;;;;;5052287;28;20427;-73
2022/06/25 04:48:18;;;;;;;36.27;20.50;;;15.90;99.90;;;;;;5051681;28;21624;-74
2022/06/25 04:50:46;;;;;;;31.93;21.40;;;15.90;99.90;;;;;;5049504;28;20522;-73
2022/06/25 04:53:13;;;;;;;35.50;20.90;;;15.90;99.90;;;;;;5047768;28;20459;-73
2022/06/25 04:55:40;;;;;;;33.43;20.90;;;15.90;99.90;;;;;;5048788;28;20452;-73
2022/06/25 04:58:07;;;;;;;40.10;21.00;;;15.90;99.90;;;;;;5052369;28;20531;-73
2022/06/25 05:00:34;;;;;;;36.67;21.40;;;15.90;99.90;;;;;;5051658;28;20526;-73
2022/06/25 05:03:00;;;;;;;36.50;21.57;;;15.90;99.90;;;;;;5052495;28;20478;-73
2022/06/25 05:05:28;;;;;;;35.50;20.70;;;15.90;99.90;;;;;;5051358;28;20864;-73
2022/06/25 05:07:55;;;;;;;37.80;21.13;;;15.90;99.90;;;;;;5052290;28;20461;-73
2022/06/25 05:10:21;;;;;;;41.93;20.67;;;15.90;99.90;;;;;;5051885;28;20423;-73
2022/06/25 05:15:33;;;;;;;47.07;21.10;;;16.00;99.90;;;;;;5051630;28;20608;-73
2022/06/25 05:18:00;;;;;;;34.67;18.60;;;16.00;99.90;;;;;;5051953;28;20423;-73
2022/06/25 05:20:28;;;;;;;28.77;21.17;;;16.10;99.90;;;;;;5051057;28;20912;-73
2022/06/25 05:22:54;;;;;;;46.93;22.10;;;16.10;99.90;;;;;;5051682;28;20961;-73
2022/06/25 05:25:21;;;;;;;33.20;19.97;;;16.20;99.90;;;;;;5051125;28;20579;-73
2022/06/25 05:27:48;;;;;;;38.33;19.40;;;16.20;99.90;;;;;;5051590;28;20477;-73
2022/06/25 05:30:14;;;;;;;30.13;18.77;;;16.30;99.90;;;;;;5050759;28;20452;-73
2022/06/25 05:32:41;;;;;;;29.70;18.93;;;16.40;99.90;;;;;;5051026;28;20427;-74
2022/06/25 05:35:08;;;;;;;34.33;17.60;;;16.40;99.90;;;;;;5050735;28;20459;-75
2022/06/25 05:37:36;;;;;;;28.07;18.00;;;16.50;99.90;;;;;;5051849;28;20477;-79
2022/06/25 05:40:03;;;;;;;28.93;18.93;;;16.70;99.90;;;;;;5054428;28;20456;-83
2022/06/25 05:42:30;;;;;;;24.90;16.37;;;16.80;99.90;;;;;;5051713;28;20439;-82
2022/06/25 05:44:57;;;;;;;28.43;17.10;;;16.90;99.90;;;;;;5054247;28;20452;-82
2022/06/25 05:47:23;;;;;;;23.97;15.80;;;17.00;99.90;;;;;;5053279;28;20508;-81
2022/06/25 05:49:51;;;;;;;26.93;15.93;;;17.10;99.90;;;;;;5053556;28;20464;-81
2022/06/25 05:52:17;;;;;;;17.80;12.03;;;17.10;99.90;;;;;;5053488;28;20481;-82
2022/06/25 05:54:45;;;;;;;25.50;14.47;;;17.20;99.90;;;;;;5053550;28;20485;-82
2022/06/25 05:57:12;;;;;;;30.87;16.10;;;17.40;99.90;;;;;;5053050;28;20448;-81
2022/06/25 05:59:39;;;;;;;17.20;12.30;;;17.50;99.90;;;;;;5054886;28;20450;-84
2022/06/25 06:02:05;;;;;;;16.83;12.40;;;17.70;99.90;;;;;;5054066;28;20920;-83
2022/06/25 06:04:32;;;;;;;23.40;13.20;;;17.80;99.90;;;;;;5054402;28;20860;-83
2022/06/25 06:07:00;;;;;;;21.73;13.60;;;17.70;99.90;;;;;;5055334;28;20458;-81
2022/06/25 06:09:28;;;;;;;17.03;13.07;;;17.60;99.90;;;;;;5054184;28;20518;-82
2022/06/25 06:11:56;;;;;;;19.73;14.17;;;17.50;99.90;;;;;;5054517;28;20863;-81
2022/06/25 06:14:23;;;;;;;21.13;13.60;;;17.40;99.90;;;;;;5052716;28;20537;-82
2022/06/25 06:16:49;;;;;;;21.80;13.30;;;17.40;99.90;;;;;;5053789;28;20431;-81
2022/06/25 06:19:16;;;;;;;20.10;12.90;;;17.30;99.90;;;;;;5053126;28;20518;-83
2022/06/25 06:21:44;;;;;;;18.17;12.90;;;17.20;99.90;;;;;;5053592;28;20467;-82
2022/06/25 06:24:11;;;;;;;18.50;13.90;;;17.20;99.90;;;;;;5053440;28;20450;-81
2022/06/25 06:26:38;;;;;;;14.30;12.80;;;17.20;99.90;;;;;;5053086;28;20427;-80
2022/06/25 06:29:06;;;;;;;25.80;15.00;;;17.20;99.90;;;;;;5053499;28;20913;-82
2022/06/25 06:31:33;;;;;;;18.13;12.33;;;17.30;99.90;;;;;;5052582;28;20484;-82
2022/06/25 06:33:59;;;;;;;16.13;11.80;;;17.60;99.90;;;;;;5052900;28;20525;-83
2022/06/25 06:36:26;;;;;;;12.90;11.03;;;17.80;99.90;;;;;;5051833;28;20473;-83
2022/06/25 06:38:53;;;;;;;20.13;10.70;;;18.00;99.90;;;;;;5052708;28;20430;-82
2022/06/25 06:41:20;;;;;;;17.60;10.90;;;18.20;99.90;;;;;;5053038;28;20500;-83
2022/06/25 06:43:47;;;;;;;12.70;11.40;;;18.40;99.90;;;;;;5052928;28;20469;-83
2022/06/25 06:46:15;;;;;;;21.83;10.73;;;18.40;99.90;;;;;;5054267;28;20488;-83
2022/06/25 06:48:41;;;;;;;20.23;12.10;;;18.40;99.90;;;;;;5053056;28;20468;-83
2022/06/25 06:51:08;;;;;;;15.50;11.77;;;18.40;99.90;;;;;;5058377;28;20443;-84
2022/06/25 06:53:35;;;;;;;24.43;11.37;;;18.40;99.90;;;;;;5059231;28;20453;-85
2022/06/25 06:56:02;;;;;;;14.10;10.77;;;18.20;99.90;;;;;;5056977;28;20531;-81
2022/06/25 06:58:29;;;;;;;19.20;11.37;;;18.10;99.90;;;;;;5057061;28;20474;-84
2022/06/25 07:00:56;;;;;;;13.83;11.37;;;18.10;99.90;;;;;;5061889;28;20504;-84
2022/06/25 07:03:24;;;;;;;16.67;11.50;;;18.10;99.90;;;;;;5057495;28;20471;-83
2022/06/25 07:05:50;;;;;;;14.30;11.47;;;18.20;99.90;;;;;;5059341;28;20506;-83
2022/06/25 07:08:17;;;;;;;12.27;10.83;;;18.30;99.90;;;;;;5062662;28;20415;-83
2022/06/25 07:10:44;;;;;;;15.27;11.60;;;18.40;99.90;;;;;;5062426;28;20473;-84
2022/06/25 07:13:11;;;;;;;16.13;11.73;;;18.40;99.90;;;;;;5061537;28;20422;-81
2022/06/25 07:15:38;;;;;;;14.20;10.87;;;18.50;99.90;;;;;;5059506;28;20446;-81
2022/06/25 07:18:04;;;;;;;12.90;11.20;;;18.50;99.90;;;;;;5059451;28;20452;-84
2022/06/25 07:20:32;;;;;;;13.93;11.20;;;18.50;99.90;;;;;;5060412;28;20439;-85
2022/06/25 07:22:59;;;;;;;13.70;10.40;;;18.60;99.90;;;;;;5053505;28;20423;-83
2022/06/25 07:25:26;;;;;;;12.20;11.10;;;18.60;99.90;;;;;;5056970;28;20431;-81
2022/06/25 07:27:52;;;;;;;14.77;11.27;;;18.80;99.90;;;;;;5055959;28;20497;-80
2022/06/25 07:30:19;;;;;;;15.20;11.73;;;19.00;99.90;;;;;;5057487;28;20986;-83
2022/06/25 07:32:46;;;;;;;17.40;11.73;;;19.20;99.90;;;;;;5057184;28;20427;-81
2022/06/25 07:35:13;;;;;;;11.87;10.67;;;19.30;99.90;;;;;;5057083;28;20487;-79
2022/06/25 07:37:42;;;;;;;17.60;10.80;;;19.40;99.90;;;;;;5060254;28;20887;-87
2022/06/25 07:40:10;;;;;;;20.23;11.17;;;19.60;99.90;;;;;;5060040;28;20461;-85
2022/06/25 07:42:36;;;;;;;14.90;11.10;;;19.80;99.90;;;;;;5060528;28;20452;-85
2022/06/25 07:45:04;;;;;;;11.47;9.33;;;19.80;99.90;;;;;;5060946;28;20436;-85
2022/06/25 07:47:37;;;;;;;15.67;11.80;;;19.80;99.90;;;;;;5062321;28;20932;-82
2022/06/25 07:52:50;;;;;;;14.13;12.30;;;20.00;99.90;;;;;;5056429;28;20440;-83
2022/06/25 07:55:17;;;;;;;15.00;13.10;;;20.10;99.90;;;;;;5063982;28;20496;-83
2022/06/25 07:57:44;;;;;;;13.47;12.00;;;20.20;99.90;;;;;;5060858;28;20452;-84
2022/06/25 08:00:12;;;;;;;12.87;11.67;;;20.40;99.90;;;;;;5061088;28;20510;-82
2022/06/25 08:02:39;;;;;;;21.07;13.73;;;20.30;99.90;;;;;;5058057;28;20448;-85
2022/06/25 08:05:07;;;;;;;15.50;12.30;;;20.20;99.90;;;;;;5058233;28;20448;-83
2022/06/25 08:07:34;;;;;;;12.33;11.13;;;20.10;99.90;;;;;;5057218;28;20449;-83
2022/06/25 08:10:02;;;;;;;15.00;11.57;;;20.20;99.90;;;;;;5056339;28;20984;-82
2022/06/25 08:12:28;;;;;;;21.30;12.80;;;20.30;99.90;;;;;;5056347;28;20439;-81
2022/06/25 08:14:55;;;;;;;19.80;15.30;;;20.40;99.90;;;;;;5056799;28;20675;-81
2022/06/25 08:17:22;;;;;;;15.90;12.30;;;20.40;99.90;;;;;;5055593;28;20506;-81
2022/06/25 08:19:48;;;;;;;18.27;13.43;;;20.60;99.90;;;;;;5056603;28;20453;-80
2022/06/25 08:22:15;;;;;;;30.57;13.33;;;20.70;99.90;;;;;;5056700;28;20464;-81
2022/06/25 08:24:42;;;;;;;14.60;13.20;;;20.60;99.90;;;;;;5052907;28;20514;-80
2022/06/25 08:27:11;;;;;;;14.97;12.57;;;20.70;99.90;;;;;;5054319;28;20449;-82
2022/06/25 08:29:37;;;;;;;20.67;12.03;;;20.70;99.90;;;;;;5055354;28;20535;-80
2022/06/25 08:32:05;;;;;;;15.53;12.80;;;20.70;99.90;;;;;;5055287;28;20480;-80
2022/06/25 08:34:31;;;;;;;15.13;11.53;;;20.80;99.90;;;;;;5055292;28;20445;-81
2022/06/25 08:36:58;;;;;;;17.93;11.67;;;20.70;99.90;;;;;;5055114;28;20479;-80
2022/06/25 08:39:25;;;;;;;14.20;11.60;;;20.70;99.90;;;;;;5055818;28;20503;-81
2022/06/25 08:41:52;;;;;;;12.67;11.30;;;20.60;99.90;;;;;;5056216;28;20992;-81
2022/06/25 08:44:20;;;;;;;12.40;10.87;;;20.50;99.90;;;;;;5055594;28;20879;-82
2022/06/25 08:46:47;;;;;;;14.07;10.57;;;20.60;99.90;;;;;;5056150;28;20460;-82
2022/06/25 08:49:18;;;;;;;17.30;10.53;;;20.60;99.90;;;;;;5055346;28;20519;-82
2022/06/25 08:51:46;;;;;;;10.83;9.40;;;20.70;99.90;;;;;;5056165;28;20480;-83
2022/06/25 08:54:14;;;;;;;14.90;11.17;;;20.90;99.90;;;;;;5055494;28;20836;-83
2022/06/25 08:56:41;;;;;;;11.47;10.10;;;20.90;99.90;;;;;;5056356;28;20499;-81
2022/06/25 08:59:09;;;;;;;12.60;10.30;;;21.10;99.90;;;;;;5055778;28;20420;-81
2022/06/25 09:01:37;;;;;;;11.23;9.57;;;21.20;99.90;;;;;;5055733;28;20526;-83
2022/06/25 09:04:03;;;;;;;18.93;11.90;;;21.20;99.90;;;;;;5055441;28;20881;-82
2022/06/25 09:06:30;;;;;;;12.27;10.03;;;21.40;99.90;;;;;;5055614;28;20453;-82
2022/06/25 09:09:11;;;;;;;11.80;10.13;;;21.40;99.90;;;;;;5056494;28;20452;-83
2022/06/25 09:11:56;;;;;;;11.90;10.70;;;21.40;99.90;;;;;;5056201;28;20476;-83
2022/06/25 09:14:25;;;;;;;14.50;9.50;;;21.70;99.90;;;;;;5056379;28;20455;-82
2022/06/25 09:17:03;;;;;;;13.20;10.20;;;22.00;99.90;;;;;;5055396;28;20484;-82
2022/06/25 09:19:32;;;;;;;9.90;9.00;;;22.10;99.90;;;;;;5054938;28;20448;-84
2022/06/25 09:22:00;;;;;;;10.33;8.60;;;22.20;99.90;;;;;;5055228;28;20468;-81
2022/06/25 09:24:40;;;;;;;9.97;8.27;;;22.30;99.90;;;;;;5054969;28;20476;-83
2022/06/25 09:27:07;;;;;;;9.03;8.13;;;22.90;99.90;;;;;;5054469;28;20456;-82
2022/06/25 09:29:42;;;;;;;9.67;8.67;;;23.10;99.90;;;;;;5051829;28;20447;-77
2022/06/25 09:32:13;;;;;;;14.53;9.20;;;23.10;99.90;;;;;;5051733;28;20468;-78
2022/06/25 09:34:40;;;;;;;11.47;9.80;;;23.10;99.90;;;;;;5051667;28;20467;-77
2022/06/25 09:37:18;;;;;;;11.17;9.17;;;22.90;99.90;;;;;;5050968;28;21253;-77
2022/06/25 09:39:46;;;;;;;9.03;8.23;;;22.90;99.90;;;;;;5051736;28;20531;-77
2022/06/25 09:42:27;;;;;;;9.03;8.13;;;22.90;99.90;;;;;;5050746;28;20568;-77
2022/06/25 09:45:08;;;;;;;10.83;7.83;;;22.90;99.90;;;;;;5051188;28;20510;-77
2022/06/25 09:47:38;;;;;;;9.70;8.67;;;22.80;99.90;;;;;;5050543;28;20461;-77
2022/06/25 09:50:06;;;;;;;12.47;9.07;;;23.00;99.90;;;;;;5051006;28;20467;-76
2022/06/25 09:52:34;;;;;;;12.60;10.20;;;23.20;99.90;;;;;;5051605;28;20460;-77
2022/06/25 09:55:01;;;;;;;9.70;8.73;;;23.10;99.90;;;;;;5050748;28;20448;-77
2022/06/25 09:57:28;;;;;;;10.97;9.20;;;23.00;99.90;;;;;;5052660;28;20510;-78
2022/06/25 09:59:59;;;;;;;18.87;9.83;;;23.00;99.90;;;;;;5051255;28;20456;-77
2022/06/25 10:02:28;;;;;;;11.33;8.70;;;22.90;99.90;;;;;;5051248;28;21041;-78
2022/06/25 10:05:00;;;;;;;11.63;8.50;;;22.90;99.90;;;;;;5051264;28;21227;-77
2022/06/25 10:07:59;;;;;;;12.93;8.40;;;23.10;99.90;;;;;;5051372;28;20514;-76
2022/06/25 10:10:18;;;;;;;11.50;7.90;;;23.00;99.90;;;;;;5050666;28;20455;-76
2022/06/25 10:12:46;;;;;;;9.70;8.70;;;23.00;99.90;;;;;;5051891;28;20455;-76
2022/06/25 10:15:16;;;;;;;12.60;9.57;;;23.20;99.90;;;;;;5054550;28;20453;-81
2022/06/25 10:17:44;;;;;;;8.90;8.00;;;23.50;99.90;;;;;;5051125;28;20535;-81
2022/06/25 10:20:13;;;;;;;12.57;6.90;;;23.30;99.90;;;;;;5051174;28;20460;-82
2022/06/25 10:22:40;;;;;;;19.43;7.63;;;23.60;99.90;;;;;;5054054;28;20518;-80
2022/06/25 10:25:11;;;;;;;8.47;6.77;;;23.80;99.90;;;;;;5053096;28;20464;-82
2022/06/25 10:27:42;;;;;;;10.13;7.17;;;23.90;99.90;;;;;;5050536;28;20453;-80
2022/06/25 10:30:09;;;;;;;7.70;6.97;;;23.80;99.90;;;;;;5048108;28;20536;-85
2022/06/25 10:32:44;;;;;;;8.67;7.77;;;23.80;99.90;;;;;;5050459;28;20463;-80
2022/06/25 10:35:27;;;;;;;9.33;7.10;;;23.80;99.90;;;;;;5052258;28;20444;-80
2022/06/25 10:38:07;;;;;;;10.90;8.00;;;23.70;99.90;;;;;;5054452;28;20547;-79
2022/06/25 10:40:45;;;;;;;11.20;7.43;;;23.70;99.90;;;;;;5051323;28;20476;-80
2022/06/25 10:43:42;;;;;;;6.30;5.63;;;23.90;99.90;;;;;;5039049;28;20482;-79
2022/06/25 10:46:27;;;;;;;7.83;6.40;;;23.80;99.90;;;;;;5048987;28;20949;-82
2022/06/25 10:48:57;;;;;;;12.60;8.03;;;24.00;99.90;;;;;;5049321;28;20452;-82
2022/06/25 10:51:32;;;;;;;7.63;6.90;;;23.70;99.90;;;;;;5053220;28;20471;-81
2022/06/25 10:53:59;;;;;;;7.70;5.83;;;23.80;99.90;;;;;;5050951;28;20873;-81
2022/06/25 10:56:26;;;;;;;9.30;8.00;;;24.00;99.90;;;;;;5051873;28;20526;-83
2022/06/25 10:58:55;;;;;;;6.87;6.23;;;24.20;99.90;;;;;;5052724;28;20560;-81
2022/06/25 11:01:32;;;;;;;10.30;7.10;;;24.30;99.90;;;;;;5053598;28;20464;-82
2022/06/25 11:04:03;;;;;;;6.17;5.67;;;24.50;99.90;;;;;;5053225;28;20878;-81
2022/06/25 11:06:35;;;;;;;7.80;5.70;;;24.70;99.90;;;;;;5054560;28;20571;-82
2022/06/25 11:09:08;;;;;;;6.30;5.80;;;24.60;99.90;;;;;;5050201;28;20567;-81
2022/06/25 11:11:36;;;;;;;11.17;6.43;;;24.50;99.90;;;;;;5054687;28;20495;-83
2022/06/25 11:14:04;;;;;;;12.43;6.83;;;24.70;99.90;;;;;;5052293;28;20437;-79
2022/06/25 11:16:31;;;;;;;8.80;6.47;;;24.90;99.90;;;;;;5056613;28;20480;-83
2022/06/25 11:19:00;;;;;;;8.97;6.60;;;25.00;99.90;;;;;;5053309;28;20469;-79
2022/06/25 11:21:29;;;;;;;8.23;6.50;;;25.00;99.90;;;;;;5054519;28;20472;-81
2022/06/25 11:24:11;;;;;;;7.63;5.93;;;25.00;99.90;;;;;;5050748;28;20468;-80
2022/06/25 11:29:24;;;;;;;8.83;6.63;;;25.40;99.90;;;;;;5050921;28;20448;-80
2022/06/25 11:31:52;;;;;;;10.70;6.77;;;25.50;99.90;;;;;;5053289;28;20483;-82
2022/06/25 11:34:20;;;;;;;6.23;5.63;;;25.70;99.90;;;;;;5051006;28;20473;-81
2022/06/25 11:36:54;;;;;;;9.00;4.90;;;25.50;99.90;;;;;;5046930;28;20550;-80
2022/06/25 11:39:22;;;;;;;7.73;4.23;;;25.50;99.90;;;;;;5050526;28;20475;-81
2022/06/25 11:41:50;;;;;;;4.13;3.80;;;25.30;99.90;;;;;;5052527;28;20530;-80
2022/06/25 11:44:18;;;;;;;5.00;4.43;;;25.30;99.90;;;;;;5048965;28;20516;-82
2022/06/25 11:46:45;;;;;;;9.00;5.70;;;25.30;99.90;;;;;;5049757;28;20483;-81
2022/06/25 11:49:13;;;;;;;7.50;4.90;;;25.20;99.90;;;;;;5052701;28;20495;-81
2022/06/25 11:51:44;;;;;;;4.50;4.20;;;25.00;99.90;;;;;;5053067;28;20464;-79
2022/06/25 11:54:11;;;;;;;6.07;4.73;;;25.10;99.90;;;;;;5056992;28;20532;-80
2022/06/25 11:56:47;;;;;;;6.60;4.20;;;25.00;99.90;;;;;;5057428;28;20858;-80
2022/06/25 11:59:15;;;;;;;10.23;4.33;;;25.40;99.90;;;;;;5052910;28;20458;-80
2022/06/25 12:01:42;;;;;;;8.33;4.43;;;25.30;99.90;;;;;;5053555;28;20564;-82
2022/06/25 12:04:09;;;;;;;6.77;4.03;;;25.20;99.90;;;;;;5055709;28;20535;-81
2022/06/25 12:06:36;;;;;;;4.33;3.80;;;25.20;99.90;;;;;;5056187;28;20455;-80
2022/06/25 12:09:03;;;;;;;5.07;3.70;;;25.50;99.90;;;;;;5056736;28;21019;-79
2022/06/25 12:11:30;;;;;;;10.13;4.40;;;25.70;99.90;;;;;;5057605;28;20558;-80
2022/06/25 12:13:58;;;;;;;4.40;3.63;;;25.80;99.90;;;;;;5057316;28;20441;-81
2022/06/25 12:16:40;;;;;;;4.70;3.37;;;25.90;99.90;;;;;;5055856;28;20472;-80
2022/06/25 12:19:07;;;;;;;3.23;2.97;;;26.10;99.90;;;;;;5056647;28;20455;-79
2022/06/25 12:21:36;;;;;;;3.60;2.77;;;26.40;99.90;;;;;;5057196;28;20472;-82
2022/06/25 12:24:06;;;;;;;3.57;2.83;;;26.50;99.90;;;;;;5055252;28;20453;-80
2022/06/25 12:26:34;;;;;;;2.93;2.73;;;26.20;99.90;;;;;;5055416;28;20824;-79
2022/06/25 12:29:10;;;;;;;3.63;3.07;;;26.20;99.90;;;;;;5055834;28;20456;-81
2022/06/25 12:31:37;;;;;;;6.30;3.03;;;26.30;99.90;;;;;;5056389;28;20480;-81
2022/06/25 12:34:05;;;;;;;4.10;2.73;;;26.60;99.90;;;;;;5054756;28;20527;-80
2022/06/25 12:36:36;;;;;;;4.03;2.93;;;26.40;99.90;;;;;;5055941;28;20480;-81
2022/06/25 12:39:04;;;;;;;2.80;2.60;;;26.50;99.90;;;;;;5056138;28;21028;-80
2022/06/25 12:41:47;;;;;;;6.67;2.80;;;26.70;99.90;;;;;;5056910;28;20479;-81
2022/06/25 12:44:17;;;;;;;2.60;2.50;;;26.70;99.90;;;;;;5053413;28;20547;-81
2022/06/25 12:46:58;;;;;;;5.27;2.80;;;26.80;99.90;;;;;;5057059;28;20453;-81
2022/06/25 12:49:25;;;;;;;5.43;2.57;;;26.80;99.90;;;;;;5055559;28;21026;-80
2022/06/25 12:51:52;;;;;;;3.60;3.03;;;27.10;99.90;;;;;;5055458;28;20480;-80